createdAt,value
2017-05-25T00:00:44.834Z,12.50
2017-05-25T00:03:11.534Z,12.50
2017-05-25T00:05:38.270Z,12.60
2017-05-25T00:08:05.011Z,12.50
2017-05-25T00:10:31.722Z,12.50
2017-05-25T00:12:58.417Z,12.50
2017-05-25T00:15:25.149Z,12.40
2017-05-25T00:17:51.895Z,12.40
2017-05-25T00:20:18.623Z,12.40
2017-05-25T00:22:45.384Z,12.40
2017-05-25T00:25:12.130Z,12.40
2017-05-25T00:27:38.819Z,12.50
2017-05-25T00:30:05.510Z,12.50
2017-05-25T00:32:32.251Z,12.40
2017-05-25T00:34:58.946Z,12.40
2017-05-25T00:37:25.647Z,12.50
2017-05-25T00:39:52.379Z,12.40
2017-05-25T00:42:19.118Z,12.40
2017-05-25T00:44:45.829Z,12.40
2017-05-25T00:47:12.606Z,12.40
2017-05-25T00:49:39.302Z,12.40
2017-05-25T00:52:05.990Z,12.40
2017-05-25T00:54:32.731Z,12.40
2017-05-25T00:56:59.437Z,12.30
2017-05-25T00:59:26.136Z,12.30
2017-05-25T01:01:52.938Z,12.30
2017-05-25T01:04:19.621Z,12.30
2017-05-25T01:06:46.319Z,12.40
2017-05-25T01:09:13.094Z,12.30
2017-05-25T01:11:39.828Z,12.30
2017-05-25T01:14:06.522Z,12.30
2017-05-25T01:16:33.226Z,12.30
2017-05-25T01:18:59.971Z,12.30
2017-05-25T01:21:26.690Z,12.30
2017-05-25T01:23:53.410Z,12.20
2017-05-25T01:26:20.149Z,12.20
2017-05-25T01:28:46.840Z,12.20
2017-05-25T01:31:13.530Z,12.20
2017-05-25T01:33:40.262Z,12.20
2017-05-25T01:36:06.958Z,12.20
2017-05-25T01:38:33.703Z,12.20
2017-05-25T01:41:00.401Z,12.20
2017-05-25T01:43:27.139Z,12.20
2017-05-25T01:45:53.861Z,12.20
2017-05-25T01:48:20.562Z,12.20
2017-05-25T01:50:47.260Z,12.20
2017-05-25T01:53:13.995Z,12.20
2017-05-25T01:55:40.687Z,12.20
2017-05-25T01:58:07.374Z,12.20
2017-05-25T02:00:34.108Z,12.20
2017-05-25T02:03:00.895Z,12.20
2017-05-25T02:05:27.618Z,12.20
2017-05-25T02:07:54.310Z,12.20
2017-05-25T02:10:21.051Z,12.30
2017-05-25T02:12:47.738Z,12.30
2017-05-25T02:15:21.590Z,12.20
2017-05-25T02:17:48.302Z,12.20
2017-05-25T02:20:14.995Z,12.20
2017-05-25T02:22:41.769Z,12.20
2017-05-25T02:25:08.467Z,12.20
2017-05-25T02:27:35.160Z,12.20
2017-05-25T02:30:01.926Z,12.20
2017-05-25T02:32:28.614Z,12.20
2017-05-25T02:34:55.310Z,12.20
2017-05-25T02:37:22.038Z,12.20
2017-05-25T02:39:48.782Z,12.20
2017-05-25T02:42:15.541Z,12.20
2017-05-25T02:44:42.296Z,12.20
2017-05-25T02:47:08.996Z,12.20
2017-05-25T02:49:36.099Z,12.10
2017-05-25T02:52:02.845Z,12.10
2017-05-25T02:54:29.571Z,12.10
2017-05-25T02:56:57.058Z,12.10
2017-05-25T02:59:23.787Z,12.00
2017-05-25T03:01:50.476Z,12.00
2017-05-25T03:04:17.195Z,11.90
2017-05-25T03:06:43.923Z,12.00
2017-05-25T03:09:10.618Z,11.90
2017-05-25T03:11:37.350Z,11.90
2017-05-25T03:14:04.048Z,11.80
2017-05-25T03:16:30.774Z,11.80
2017-05-25T03:18:57.697Z,11.80
2017-05-25T03:21:24.392Z,11.80
2017-05-25T03:23:51.079Z,11.80
2017-05-25T03:26:24.710Z,11.80
2017-05-25T03:28:51.418Z,11.80
2017-05-25T03:31:18.167Z,11.70
2017-05-25T03:33:44.863Z,11.80
2017-05-25T03:36:11.566Z,11.70
2017-05-25T03:38:38.275Z,11.70
2017-05-25T03:41:04.963Z,11.70
2017-05-25T03:43:31.710Z,11.70
2017-05-25T03:45:58.410Z,11.70
2017-05-25T03:48:25.119Z,11.70
2017-05-25T03:50:51.851Z,11.70
2017-05-25T03:53:18.543Z,11.70
2017-05-25T03:55:45.715Z,11.60
2017-05-25T03:58:12.439Z,11.60
2017-05-25T04:00:39.157Z,11.60
2017-05-25T04:03:05.862Z,11.50
2017-05-25T04:05:32.578Z,11.50
2017-05-25T04:07:59.314Z,11.50
2017-05-25T04:10:26.031Z,11.50
2017-05-25T04:12:52.727Z,11.50
2017-05-25T04:15:19.499Z,11.50
2017-05-25T04:17:46.192Z,11.50
2017-05-25T04:20:12.914Z,11.50
2017-05-25T04:22:39.642Z,11.50
2017-05-25T04:25:06.339Z,11.60
2017-05-25T04:27:33.031Z,11.60
2017-05-25T04:29:59.784Z,11.60
2017-05-25T04:32:26.523Z,11.60
2017-05-25T04:34:53.223Z,11.60
2017-05-25T04:37:19.972Z,11.70
2017-05-25T04:39:46.671Z,11.70
2017-05-25T04:42:13.378Z,11.70
2017-05-25T04:44:40.096Z,11.70
2017-05-25T04:47:06.890Z,11.70
2017-05-25T04:49:33.585Z,11.70
2017-05-25T04:52:00.290Z,11.70
2017-05-25T04:54:27.039Z,11.70
2017-05-25T04:56:53.778Z,11.80
2017-05-25T04:59:20.482Z,11.80
2017-05-25T05:01:47.175Z,11.80
2017-05-25T05:04:13.906Z,11.70
2017-05-25T05:06:40.598Z,11.70
2017-05-25T05:09:07.290Z,11.80
2017-05-25T05:11:34.030Z,11.80
2017-05-25T05:14:00.749Z,11.80
2017-05-25T05:16:27.480Z,11.90
2017-05-25T05:18:54.220Z,11.90
2017-05-25T05:21:20.952Z,11.90
2017-05-25T05:23:47.649Z,12.00
2017-05-25T05:26:14.407Z,12.00
2017-05-25T05:28:41.102Z,12.00
2017-05-25T05:31:07.802Z,12.10
2017-05-25T05:33:34.568Z,12.20
2017-05-25T05:36:01.288Z,12.20
2017-05-25T05:38:28.006Z,12.30
2017-05-25T05:40:54.734Z,12.40
2017-05-25T05:43:21.442Z,12.50
2017-05-25T05:45:48.142Z,12.50
2017-05-25T05:48:14.906Z,12.50
2017-05-25T05:50:41.610Z,12.60
2017-05-25T05:53:08.299Z,12.60
2017-05-25T05:55:35.034Z,12.70
2017-05-25T05:58:01.726Z,12.70
2017-05-25T06:00:28.413Z,12.80
2017-05-25T06:02:55.174Z,12.80
2017-05-25T06:05:21.870Z,12.80
2017-05-25T06:07:48.584Z,13.00
2017-05-25T06:10:15.347Z,13.00
2017-05-25T06:12:42.060Z,13.00
2017-05-25T06:15:08.794Z,13.00
2017-05-25T06:17:35.535Z,13.10
2017-05-25T06:20:02.226Z,13.20
2017-05-25T06:22:28.922Z,13.20
2017-05-25T06:24:55.662Z,13.20
2017-05-25T06:27:22.343Z,13.30
2017-05-25T06:29:49.058Z,13.30
2017-05-25T06:32:15.878Z,13.40
2017-05-25T06:34:42.574Z,13.40
2017-05-25T06:37:09.322Z,13.50
2017-05-25T06:39:36.030Z,13.50
2017-05-25T06:42:02.778Z,13.50
2017-05-25T06:44:29.529Z,13.60
2017-05-25T06:46:56.262Z,13.70
2017-05-25T06:49:22.967Z,13.70
2017-05-25T06:51:49.779Z,13.80
2017-05-25T06:54:16.498Z,13.80
2017-05-25T06:56:43.182Z,13.90
2017-05-25T06:59:17.037Z,13.90
2017-05-25T07:01:43.766Z,14.00
2017-05-25T07:04:10.526Z,14.10
2017-05-25T07:06:37.242Z,14.10
2017-05-25T07:09:03.998Z,14.20
2017-05-25T07:11:30.699Z,14.20
2017-05-25T07:13:57.423Z,14.20
2017-05-25T07:16:24.171Z,14.30
2017-05-25T07:18:50.925Z,14.40
2017-05-25T07:21:17.629Z,14.40
2017-05-25T07:23:44.324Z,14.50
2017-05-25T07:26:11.055Z,14.50
2017-05-25T07:28:37.759Z,14.50
2017-05-25T07:31:04.498Z,14.50
2017-05-25T07:33:31.253Z,14.50
2017-05-25T07:35:57.949Z,14.60
2017-05-25T07:38:24.659Z,14.70
2017-05-25T07:40:51.443Z,14.80
2017-05-25T07:43:18.242Z,14.90
2017-05-25T07:45:44.974Z,15.10
2017-05-25T07:48:11.671Z,15.10
2017-05-25T07:50:38.412Z,15.20
2017-05-25T07:53:05.091Z,15.30
2017-05-25T07:55:31.783Z,15.40
2017-05-25T07:57:58.539Z,15.40
2017-05-25T08:00:25.238Z,15.40
2017-05-25T08:02:52.019Z,15.40
2017-05-25T08:05:18.714Z,15.40
2017-05-25T08:07:45.411Z,15.50
2017-05-25T08:10:12.155Z,15.50
2017-05-25T08:12:38.882Z,15.50
2017-05-25T08:15:05.566Z,15.50
2017-05-25T08:17:32.259Z,15.50
2017-05-25T08:19:58.987Z,15.50
2017-05-25T08:22:24.999Z,15.50
2017-05-25T08:24:51.722Z,15.30
2017-05-25T08:27:18.426Z,15.30
2017-05-25T08:29:45.172Z,15.40
2017-05-25T08:32:11.859Z,15.50
2017-05-25T08:34:38.554Z,15.60
2017-05-25T08:37:05.282Z,15.70
2017-05-25T08:39:32.018Z,15.70
2017-05-25T08:41:58.718Z,15.70
2017-05-25T08:44:25.471Z,15.60
2017-05-25T08:46:52.222Z,15.70
2017-05-25T08:49:18.958Z,15.90
2017-05-25T08:51:45.664Z,15.90
2017-05-25T08:54:12.362Z,15.80
2017-05-25T08:56:39.078Z,15.90
2017-05-25T08:59:05.776Z,16.00
2017-05-25T09:01:32.499Z,16.00
2017-05-25T09:03:59.182Z,16.10
2017-05-25T09:06:25.922Z,16.10
2017-05-25T09:08:52.747Z,16.10
2017-05-25T09:11:19.457Z,16.00
2017-05-25T09:13:46.206Z,16.00
2017-05-25T09:16:12.903Z,16.00
2017-05-25T09:18:39.624Z,15.90
2017-05-25T09:21:06.357Z,15.80
2017-05-25T09:23:33.058Z,15.90
2017-05-25T09:25:59.751Z,15.90
2017-05-25T09:28:26.475Z,16.20
2017-05-25T09:30:53.166Z,16.40
2017-05-25T09:33:19.850Z,16.50
2017-05-25T09:35:48.349Z,16.40
2017-05-25T09:38:15.155Z,16.30
2017-05-25T09:40:41.895Z,16.20
2017-05-25T09:43:08.582Z,16.20
2017-05-25T09:45:35.309Z,16.30
2017-05-25T09:48:02.072Z,16.40
2017-05-25T09:50:28.774Z,16.60
2017-05-25T09:52:55.463Z,16.80
2017-05-25T09:55:22.211Z,16.80
2017-05-25T09:57:48.939Z,16.80
2017-05-25T10:00:15.666Z,16.80
2017-05-25T10:02:42.399Z,16.80
2017-05-25T10:05:09.100Z,16.80
2017-05-25T10:07:35.791Z,16.90
2017-05-25T10:10:02.514Z,17.00
2017-05-25T10:12:29.284Z,17.00
2017-05-25T10:14:56.022Z,17.00
2017-05-25T10:17:22.757Z,17.10
2017-05-25T10:19:49.478Z,17.10
2017-05-25T10:22:16.233Z,17.20
2017-05-25T10:24:42.927Z,17.30
2017-05-25T10:27:09.631Z,17.30
2017-05-25T10:29:36.423Z,17.30
2017-05-25T10:32:03.198Z,17.40
2017-05-25T10:34:29.898Z,17.50
2017-05-25T10:36:56.587Z,17.50
2017-05-25T10:39:23.335Z,17.50
2017-05-25T10:41:50.063Z,17.60
2017-05-25T10:44:16.779Z,17.70
2017-05-25T10:46:43.465Z,17.90
2017-05-25T10:49:10.195Z,18.00
2017-05-25T10:51:36.939Z,18.10
2017-05-25T10:54:03.715Z,18.10
2017-05-25T10:56:30.478Z,18.10
2017-05-25T10:58:57.170Z,18.10
2017-05-25T11:01:23.918Z,18.10
2017-05-25T11:03:50.606Z,18.20
2017-05-25T11:06:17.293Z,18.20
2017-05-25T11:08:44.059Z,18.10
2017-05-25T11:11:10.871Z,17.80
2017-05-25T11:13:37.587Z,17.70
2017-05-25T11:16:04.339Z,17.80
2017-05-25T11:18:31.732Z,18.00
2017-05-25T11:20:58.440Z,18.10
2017-05-25T11:23:25.134Z,18.30
2017-05-25T11:25:51.878Z,18.40
2017-05-25T11:28:18.566Z,18.60
2017-05-25T11:30:45.269Z,18.70
2017-05-25T11:33:11.991Z,18.90
2017-05-25T11:35:38.739Z,18.90
2017-05-25T11:38:05.434Z,19.00
2017-05-25T11:40:32.136Z,19.10
2017-05-25T11:42:58.878Z,19.20
2017-05-25T11:45:25.585Z,19.30
2017-05-25T11:47:52.293Z,19.30
2017-05-25T11:50:19.344Z,19.40
2017-05-25T11:52:46.030Z,19.60
2017-05-25T11:55:12.722Z,19.60
2017-05-25T11:57:39.470Z,19.50
2017-05-25T12:00:06.183Z,19.30
2017-05-25T12:02:32.888Z,19.30
2017-05-25T12:04:59.693Z,19.20
2017-05-25T12:07:26.395Z,19.10
2017-05-25T12:09:53.098Z,19.00
2017-05-25T12:12:19.835Z,19.10
2017-05-25T12:14:46.527Z,19.10
2017-05-25T12:17:13.250Z,19.00
2017-05-25T12:19:39.950Z,18.90
2017-05-25T12:22:06.735Z,18.80
2017-05-25T12:24:33.435Z,18.70
2017-05-25T12:27:00.179Z,18.60
2017-05-25T12:29:26.915Z,18.60
2017-05-25T12:31:53.621Z,18.60
2017-05-25T12:34:20.332Z,18.50
2017-05-25T12:36:47.095Z,18.50
2017-05-25T12:39:13.823Z,18.40
2017-05-25T12:41:40.510Z,18.20
2017-05-25T12:44:07.269Z,18.30
2017-05-25T12:46:33.950Z,18.40
2017-05-25T12:49:00.706Z,18.40
2017-05-25T12:51:27.431Z,18.40
2017-05-25T12:53:54.152Z,18.40
2017-05-25T12:56:20.858Z,18.40
2017-05-25T12:58:54.579Z,18.50
2017-05-25T13:01:21.339Z,18.60
2017-05-25T13:03:48.035Z,18.70
2017-05-25T13:06:14.768Z,18.80
2017-05-25T13:08:41.467Z,18.70
2017-05-25T13:11:08.224Z,18.70
2017-05-25T13:13:34.938Z,18.90
2017-05-25T13:16:01.635Z,19.10
2017-05-25T13:18:28.387Z,19.50
2017-05-25T13:20:55.076Z,20.30
2017-05-25T13:23:21.766Z,20.70
2017-05-25T13:25:48.513Z,20.90
2017-05-25T13:28:15.215Z,20.80
2017-05-25T13:30:41.927Z,20.50
2017-05-25T13:33:08.674Z,20.20
2017-05-25T13:35:35.378Z,20.00
2017-05-25T13:38:02.079Z,19.80
2017-05-25T13:40:28.818Z,19.70
2017-05-25T13:42:55.523Z,19.60
2017-05-25T13:45:22.217Z,20.10
2017-05-25T13:47:49.029Z,20.20
2017-05-25T13:50:14.991Z,20.20
2017-05-25T13:52:41.732Z,20.90
2017-05-25T13:55:08.442Z,22.50
2017-05-25T13:57:35.202Z,24.00
2017-05-25T14:00:01.923Z,24.60
2017-05-25T14:02:28.617Z,24.60
2017-05-25T14:04:55.398Z,24.30
2017-05-25T14:07:22.090Z,24.10
2017-05-25T14:09:48.800Z,23.70
2017-05-25T14:12:15.623Z,23.00
2017-05-25T14:14:42.323Z,22.40
2017-05-25T14:17:09.051Z,22.00
2017-05-25T14:19:35.808Z,21.50
2017-05-25T14:22:02.585Z,21.30
2017-05-25T14:24:29.299Z,21.20
2017-05-25T14:26:55.989Z,21.10
2017-05-25T14:29:22.746Z,20.90
2017-05-25T14:31:49.435Z,20.80
2017-05-25T14:36:53.226Z,21.00
2017-05-25T14:39:19.967Z,21.00
2017-05-25T14:41:46.766Z,21.00
2017-05-25T14:44:13.546Z,21.00
2017-05-25T14:46:40.330Z,20.80
2017-05-25T14:49:07.136Z,20.90
2017-05-25T14:51:33.983Z,20.80
2017-05-25T14:54:00.725Z,20.80
2017-05-25T14:56:27.758Z,20.70
2017-05-25T14:58:54.503Z,20.70
2017-05-25T15:01:21.195Z,20.60
2017-05-25T15:03:47.886Z,20.50
2017-05-25T15:06:14.646Z,20.50
2017-05-25T15:08:41.380Z,20.50
2017-05-25T15:11:08.098Z,20.50
2017-05-25T15:13:34.824Z,20.70
2017-05-25T15:16:01.594Z,21.10
2017-05-25T15:18:28.311Z,21.20
2017-05-25T15:20:55.014Z,21.30
2017-05-25T15:23:21.754Z,21.00
2017-05-25T15:25:48.466Z,20.80
2017-05-25T15:28:15.221Z,20.70
2017-05-25T15:30:42.024Z,20.60
2017-05-25T15:33:08.748Z,20.60
2017-05-25T15:35:35.450Z,20.70
2017-05-25T15:38:02.206Z,20.70
2017-05-25T15:40:28.923Z,20.50
2017-05-25T15:42:55.615Z,20.40
2017-05-25T15:45:22.390Z,20.50
2017-05-25T15:47:49.218Z,20.90
2017-05-25T15:50:15.905Z,21.10
2017-05-25T15:52:42.635Z,21.20
2017-05-25T15:55:09.349Z,21.20
2017-05-25T15:57:36.079Z,21.10
2017-05-25T16:00:02.822Z,21.00
2017-05-25T16:02:29.564Z,21.00
2017-05-25T16:04:56.261Z,21.00
2017-05-25T16:07:22.955Z,21.00
2017-05-25T16:09:49.708Z,21.00
2017-05-25T16:12:16.414Z,21.10
2017-05-25T16:14:43.123Z,21.10
2017-05-25T16:17:09.863Z,21.00
2017-05-25T16:19:36.583Z,20.80
2017-05-25T16:22:03.322Z,20.60
2017-05-25T16:24:30.045Z,20.70
2017-05-25T16:26:56.827Z,20.60
2017-05-25T16:29:23.538Z,20.60
2017-05-25T16:31:50.272Z,20.40
2017-05-25T16:34:16.970Z,20.40
2017-05-25T16:36:43.658Z,20.30
2017-05-25T16:39:10.475Z,20.30
2017-05-25T16:41:37.175Z,20.30
2017-05-25T16:44:03.896Z,20.10
2017-05-25T16:46:30.655Z,20.00
2017-05-25T16:48:57.347Z,20.00
2017-05-25T16:51:24.035Z,19.90
2017-05-25T16:53:50.775Z,20.00
2017-05-25T16:56:17.471Z,19.90
2017-05-25T16:58:44.210Z,19.90
2017-05-25T17:01:10.938Z,19.70
2017-05-25T17:03:37.644Z,19.60
2017-05-25T17:06:04.450Z,19.40
2017-05-25T17:08:31.156Z,19.30
2017-05-25T17:10:57.867Z,19.30
2017-05-25T17:13:24.591Z,19.20
2017-05-25T17:15:51.282Z,19.20
2017-05-25T17:18:18.091Z,19.20
2017-05-25T17:20:44.783Z,19.20
2017-05-25T17:23:11.502Z,19.10
2017-05-25T17:25:38.307Z,19.10
2017-05-25T17:28:05.096Z,19.10
2017-05-25T17:30:31.823Z,18.90
2017-05-25T17:32:58.526Z,18.80
2017-05-25T17:35:25.249Z,18.60
2017-05-25T17:37:51.987Z,18.40
2017-05-25T17:40:18.686Z,18.30
2017-05-25T17:42:45.383Z,18.30
2017-05-25T17:45:12.106Z,18.30
2017-05-25T17:47:38.815Z,18.20
2017-05-25T17:50:05.514Z,18.10
2017-05-25T17:52:32.273Z,17.90
2017-05-25T17:54:58.967Z,17.70
2017-05-25T17:57:25.702Z,17.70
2017-05-25T17:59:52.458Z,17.70
2017-05-25T18:02:19.154Z,17.60
2017-05-25T18:04:45.854Z,17.40
2017-05-25T18:07:12.624Z,17.30
2017-05-25T18:09:39.395Z,17.30
2017-05-25T18:12:06.095Z,17.20
2017-05-25T18:14:32.890Z,17.20
2017-05-25T18:16:59.590Z,17.20
2017-05-25T18:19:26.283Z,17.20
2017-05-25T18:21:53.022Z,17.20
2017-05-25T18:24:19.767Z,17.10
2017-05-25T18:26:46.464Z,17.20
2017-05-25T18:29:13.279Z,17.10
2017-05-25T18:31:40.032Z,17.00
2017-05-25T18:34:06.762Z,17.00
2017-05-25T18:36:33.534Z,17.00
2017-05-25T18:39:00.236Z,17.00
2017-05-25T18:41:26.935Z,17.00
2017-05-25T18:43:53.666Z,16.90
2017-05-25T18:46:20.426Z,16.90
2017-05-25T18:48:47.174Z,16.80
2017-05-25T18:51:13.874Z,16.80
2017-05-25T18:53:40.598Z,16.70
2017-05-25T18:56:07.303Z,16.60
2017-05-25T18:58:34.086Z,16.60
2017-05-25T19:01:00.793Z,16.50
2017-05-25T19:03:27.530Z,16.40
2017-05-25T19:05:54.269Z,16.30
2017-05-25T19:08:20.966Z,16.20
2017-05-25T19:10:47.667Z,16.20
2017-05-25T19:13:14.407Z,16.20
2017-05-25T19:15:41.126Z,16.20
2017-05-25T19:18:07.837Z,16.10
2017-05-25T19:20:34.574Z,16.00
2017-05-25T19:23:01.266Z,16.00
2017-05-25T19:25:28.045Z,15.90
2017-05-25T19:27:54.738Z,15.80
2017-05-25T19:30:21.543Z,15.70
2017-05-25T19:32:48.282Z,15.60
2017-05-25T19:35:14.979Z,15.60
2017-05-25T19:37:41.677Z,15.50
2017-05-25T19:40:08.425Z,15.40
2017-05-25T19:42:35.175Z,15.40
2017-05-25T19:45:01.900Z,15.30
2017-05-25T19:47:28.646Z,15.30
2017-05-25T19:49:55.367Z,15.30
2017-05-25T19:52:22.062Z,15.30
2017-05-25T19:54:48.801Z,15.30
2017-05-25T19:57:15.493Z,15.20
2017-05-25T19:59:42.195Z,15.20
2017-05-25T20:02:08.970Z,15.20
2017-05-25T20:04:35.865Z,15.10
2017-05-25T20:07:02.627Z,15.00
2017-05-25T20:09:29.318Z,15.00
2017-05-25T20:11:56.006Z,14.90
2017-05-25T20:14:22.743Z,14.90
2017-05-25T20:16:49.435Z,14.80
2017-05-25T20:19:16.158Z,14.80
2017-05-25T20:21:42.911Z,14.80
2017-05-25T20:24:09.696Z,14.70
2017-05-25T20:26:36.458Z,14.60
2017-05-25T20:29:03.259Z,14.60
2017-05-25T20:31:29.975Z,14.50
2017-05-25T20:33:56.685Z,14.50
2017-05-25T20:36:23.440Z,14.50
2017-05-25T20:38:50.145Z,14.40
2017-05-25T20:41:16.834Z,14.40
2017-05-25T20:43:43.586Z,14.40
2017-05-25T20:46:10.278Z,14.30
2017-05-25T20:48:36.971Z,14.30
2017-05-25T20:51:03.710Z,14.20
2017-05-25T20:53:30.398Z,14.20
2017-05-25T20:55:57.142Z,14.10
2017-05-25T20:58:23.886Z,14.10
2017-05-25T21:00:50.587Z,14.00
2017-05-25T21:03:17.282Z,14.00
2017-05-25T21:05:43.279Z,14.00
2017-05-25T21:08:09.994Z,13.90
2017-05-25T21:10:36.686Z,13.90
2017-05-25T21:13:03.443Z,13.90
2017-05-25T21:15:30.130Z,13.80
2017-05-25T21:17:56.822Z,13.80
2017-05-25T21:20:23.642Z,13.70
2017-05-25T21:22:50.369Z,13.70
2017-05-25T21:25:17.113Z,13.70
2017-05-25T21:27:43.867Z,13.70
2017-05-25T21:30:10.558Z,13.60
2017-05-25T21:32:37.254Z,13.60
2017-05-25T21:35:03.986Z,13.50
2017-05-25T21:37:30.673Z,13.50
2017-05-25T21:39:57.367Z,13.50
2017-05-25T21:42:24.106Z,13.50
2017-05-25T21:44:50.803Z,13.40
2017-05-25T21:47:17.501Z,13.40
2017-05-25T21:49:44.284Z,13.30
2017-05-25T21:52:10.970Z,13.30
2017-05-25T21:54:37.670Z,13.30
2017-05-25T21:57:04.402Z,13.20
2017-05-25T21:59:38.042Z,13.20
2017-05-25T22:02:04.798Z,13.20
2017-05-25T22:04:31.494Z,13.20
2017-05-25T22:06:58.243Z,13.10
2017-05-25T22:09:24.981Z,13.00
2017-05-25T22:11:51.677Z,13.00
2017-05-25T22:14:18.362Z,13.00
2017-05-25T22:16:45.126Z,13.00
2017-05-25T22:19:11.823Z,13.00
2017-05-25T22:21:38.526Z,12.90
2017-05-25T22:24:05.262Z,12.80
2017-05-25T22:26:31.958Z,12.90
2017-05-25T22:28:58.654Z,12.80
2017-05-25T22:31:25.393Z,12.80
2017-05-25T22:33:52.086Z,12.80
2017-05-25T22:36:18.786Z,12.70
2017-05-25T22:38:45.538Z,12.70
2017-05-25T22:41:12.232Z,12.70
2017-05-25T22:43:38.922Z,12.60
2017-05-25T22:46:05.707Z,12.60
2017-05-25T22:48:32.398Z,12.60
2017-05-25T22:50:59.129Z,12.50
2017-05-25T22:53:25.884Z,12.50
2017-05-25T22:55:52.581Z,12.50
2017-05-25T22:58:19.273Z,12.50
2017-05-25T23:00:46.039Z,12.50
2017-05-25T23:03:12.734Z,12.50
2017-05-25T23:05:39.458Z,12.40
2017-05-25T23:08:06.174Z,12.40
2017-05-25T23:10:32.874Z,12.40
2017-05-25T23:12:59.610Z,12.40
2017-05-25T23:15:26.303Z,12.40
2017-05-25T23:17:52.999Z,12.40
2017-05-25T23:20:19.742Z,12.40
2017-05-25T23:22:46.434Z,12.40
2017-05-25T23:25:13.155Z,12.40
2017-05-25T23:27:39.898Z,12.40
2017-05-25T23:30:06.598Z,12.40
2017-05-25T23:32:33.298Z,12.40
2017-05-25T23:35:00.053Z,12.40
2017-05-25T23:37:26.738Z,12.40
2017-05-25T23:39:53.431Z,12.40
2017-05-25T23:42:20.164Z,12.40
2017-05-25T23:44:46.854Z,12.40
2017-05-25T23:47:13.563Z,12.30
2017-05-25T23:49:40.339Z,12.30
2017-05-25T23:52:07.072Z,12.30
2017-05-25T23:54:33.758Z,12.20
2017-05-25T23:57:00.527Z,12.20
2017-05-25T23:59:27.248Z,12.20
